Ayvacik, Turkey
Current Conditions -  °F | °C
As of 11:50 AM on Friday 31 Oct 2014 (Local Time) from LTFD Reporting Station
Broken Clouds Broken Clouds  
Wind Chill: 57°   Ceiling: 10000
Heat Index: 57°   Visibility: 6mi
Dew Point: 45°   Wind: 15mph
Humidity: 63%   Direction: 70°ENE
Pressure: 30.09"   Gusts: NA
Location:  39.6°N, 26.4°E
Report Text: LTFD 310850Z 07013KT 9999 SCT035 BKN100 14/07 Q1019
Loading
Personal Weather Stations






























Interactive Weather Map
Tropical Storm Tracking
New forecast layout! Learn more

10-Day Weather Forecast

Advertisements
Track Severe Weather on mobile